Airport View

Enter AWOS ICAO identifier for current METAR.

ex. KFNL

KD57 261145Z AUTO 00000KT 9SM 10/08 A2995 RMK AO2 PWINO

26 Jun 2019 11:49

Other Area AWOS: KHZE - KDIK - KY19 - KBIS

TAF KDIK 260524Z 2606/2706 VRB04KT P6SM SCT070 BKN200 FM261700 10006KT P6SM FEW060 FEW250